Terminal Aerodrome Forecast
Issued by NWS Sterling, VA

Home | Current Version | Previous Version | Text Only | Print | Product List | Glossary On
Versions: 1 2 3 4 5 6 7 8 9 10 11 12 13 14 15 16 17
000
FTUS41 KLWX 271134
TAFCHO
TAF
KCHO 271134Z 2712/2812 00000KT 1/2SM FG VV001
     FM271400 14004KT 2SM BR BKN010
     FM271500 19006KT P6SM FEW250
     FM272100 19013G21KT P6SM SCT050
     FM272300 19012KT P6SM BKN050
     FM280600 VRB03KT 3SM BR BKN250=

USA.gov is the U.S. government's official web portal to all federal, state and local government web resources and services.